createdAt,value
2022-08-03T00:00:36.089Z,5.57
2022-08-03T00:03:04.962Z,4.45
2022-08-03T00:05:34.230Z,3.88
2022-08-03T00:08:03.585Z,4.60
2022-08-03T00:10:32.317Z,5.22
2022-08-03T00:13:00.270Z,6.85
2022-08-03T00:15:28.786Z,5.55
2022-08-03T00:17:56.699Z,3.77
2022-08-03T00:20:25.177Z,6.10
2022-08-03T00:22:53.624Z,6.80
2022-08-03T00:25:23.076Z,6.45
2022-08-03T00:27:51.178Z,9.30
2022-08-03T00:30:19.981Z,7.75
2022-08-03T00:32:48.715Z,5.45
2022-08-03T00:35:32.488Z,4.33
2022-08-03T00:38:06.402Z,5.93
2022-08-03T00:40:36.837Z,4.18
2022-08-03T00:43:06.264Z,5.18
2022-08-03T00:45:36.629Z,6.53
2022-08-03T00:48:06.708Z,7.13
2022-08-03T00:50:55.333Z,6.55
2022-08-03T00:53:23.061Z,5.77
2022-08-03T00:55:52.503Z,5.32
2022-08-03T00:58:20.505Z,7.53
2022-08-03T01:00:49.400Z,7.65
2022-08-03T01:03:18.209Z,7.63
2022-08-03T01:05:52.508Z,4.10
2022-08-03T01:08:24.667Z,4.30
2022-08-03T01:11:04.405Z,4.53
2022-08-03T01:14:01.262Z,3.60
2022-08-03T01:16:35.816Z,8.00
2022-08-03T01:19:17.372Z,6.10
2022-08-03T01:21:53.509Z,5.60
2022-08-03T01:24:34.387Z,6.20
2022-08-03T01:27:12.914Z,7.72
2022-08-03T01:30:06.241Z,4.80
2022-08-03T01:32:59.231Z,7.07
2022-08-03T01:35:38.397Z,9.90
2022-08-03T01:38:10.432Z,5.27
2022-08-03T01:40:39.017Z,10.13
2022-08-03T01:43:08.004Z,7.03
2022-08-03T01:45:37.863Z,8.15
2022-08-03T01:48:06.429Z,7.82
2022-08-03T01:52:02.859Z,7.75
2022-08-03T01:54:25.492Z,8.32
2022-08-03T01:56:55.683Z,6.28
2022-08-03T01:59:24.296Z,6.63
2022-08-03T02:02:15.664Z,5.82
2022-08-03T02:04:46.897Z,8.40
2022-08-03T02:07:15.794Z,8.23
2022-08-03T02:09:46.421Z,6.60
2022-08-03T02:12:15.868Z,8.85
2022-08-03T02:14:45.844Z,7.82
2022-08-03T02:17:15.955Z,7.53
2022-08-03T02:19:44.554Z,8.98
2022-08-03T02:22:14.757Z,9.40
2022-08-03T02:24:49.273Z,8.17
2022-08-03T02:27:21.720Z,9.93
2022-08-03T02:29:52.313Z,10.25
2022-08-03T02:32:29.130Z,9.93
2022-08-03T02:34:59.320Z,10.07
2022-08-03T02:37:29.583Z,10.23
2022-08-03T02:40:01.059Z,8.70
2022-08-03T02:42:30.441Z,12.23
2022-08-03T02:45:01.196Z,9.90
2022-08-03T02:47:54.017Z,9.90
2022-08-03T02:50:20.266Z,10.37
2022-08-03T02:52:48.722Z,11.07
2022-08-03T02:55:17.864Z,10.25
2022-08-03T02:57:47.905Z,8.07
2022-08-03T03:00:19.385Z,8.70
2022-08-03T03:02:58.506Z,10.40
2022-08-03T03:05:52.375Z,8.80
2022-08-03T03:08:25.938Z,9.65
2022-08-03T03:10:56.568Z,10.63
2022-08-03T03:13:25.129Z,10.50
2022-08-03T03:15:54.279Z,13.03
2022-08-03T03:18:25.246Z,9.20
2022-08-03T03:24:34.072Z,10.63
2022-08-03T03:27:02.355Z,9.55
2022-08-03T03:29:30.669Z,11.00
2022-08-03T03:32:09.275Z,9.27
2022-08-03T03:34:39.024Z,10.63
2022-08-03T03:37:07.471Z,12.13
2022-08-03T03:39:36.399Z,14.70
2022-08-03T03:42:06.051Z,14.50
2022-08-03T03:44:34.653Z,9.55
2022-08-03T03:47:04.210Z,12.18
2022-08-03T03:49:32.793Z,16.25
2022-08-03T03:52:08.281Z,12.83
2022-08-03T03:54:42.628Z,13.10
2022-08-03T03:57:13.020Z,14.63
2022-08-03T03:59:44.964Z,11.85
2022-08-03T04:02:13.294Z,9.32
2022-08-03T04:04:58.556Z,13.20
2022-08-03T04:07:45.812Z,12.52
2022-08-03T04:10:41.784Z,11.88
2022-08-03T04:13:11.334Z,11.82
2022-08-03T04:15:41.452Z,15.43
2022-08-03T04:18:11.808Z,11.05
2022-08-03T04:20:42.305Z,10.07
2022-08-03T04:23:15.538Z,12.32
2022-08-03T04:25:44.287Z,12.77
2022-08-03T04:28:31.214Z,11.63
2022-08-03T04:31:01.323Z,10.80
2022-08-03T04:33:30.844Z,9.98
2022-08-03T04:36:01.638Z,9.25
2022-08-03T04:38:41.524Z,8.60
2022-08-03T04:41:10.291Z,11.80
2022-08-03T04:43:40.888Z,10.90
2022-08-03T04:46:21.965Z,9.95
2022-08-03T04:48:52.276Z,10.67
2022-08-03T04:51:20.214Z,10.67
2022-08-03T04:53:50.475Z,9.23
2022-08-03T04:56:19.260Z,11.25
2022-08-03T04:58:46.986Z,10.55
2022-08-03T05:01:16.153Z,13.95
2022-08-03T05:03:44.120Z,11.57
2022-08-03T05:06:12.016Z,11.47
2022-08-03T05:08:46.198Z,9.95
2022-08-03T05:11:16.878Z,16.60
2022-08-03T05:13:46.755Z,12.25
2022-08-03T05:16:15.943Z,12.70
2022-08-03T05:18:46.190Z,12.73
2022-08-03T05:21:16.751Z,9.40
2022-08-03T05:23:44.944Z,17.45
2022-08-03T05:26:12.897Z,10.50
2022-08-03T05:28:51.119Z,13.53
2022-08-03T05:31:20.347Z,10.73
2022-08-03T05:33:49.308Z,14.27
2022-08-03T05:36:17.373Z,10.52
2022-08-03T05:38:45.265Z,15.27
2022-08-03T05:41:22.906Z,10.90
2022-08-03T05:43:54.132Z,11.35
2022-08-03T05:46:22.511Z,12.13
2022-08-03T05:48:51.631Z,14.77
2022-08-03T05:51:20.317Z,13.07
2022-08-03T05:54:55.492Z,13.07
2022-08-03T05:57:24.823Z,11.80
2022-08-03T05:59:58.840Z,10.10
2022-08-03T06:02:26.973Z,10.27
2022-08-03T06:04:55.471Z,18.47
2022-08-03T06:07:23.318Z,11.75
2022-08-03T06:10:34.520Z,9.50
2022-08-03T06:12:41.148Z,11.50
2022-08-03T06:15:11.811Z,9.63
2022-08-03T06:17:50.251Z,9.93
2022-08-03T06:20:19.552Z,10.05
2022-08-03T06:22:51.386Z,10.85
2022-08-03T06:25:28.875Z,10.73
2022-08-03T06:27:59.869Z,11.02
2022-08-03T06:30:29.336Z,11.13
2022-08-03T06:32:57.041Z,10.77
2022-08-03T06:35:24.936Z,9.57
2022-08-03T06:37:53.113Z,10.90
2022-08-03T06:40:28.472Z,11.45
2022-08-03T06:42:56.847Z,9.02
2022-08-03T06:45:25.473Z,9.82
2022-08-03T06:48:05.248Z,11.60
2022-08-03T06:50:33.587Z,11.40
2022-08-03T06:53:03.783Z,8.70
2022-08-03T06:55:32.216Z,9.15
2022-08-03T06:58:03.495Z,10.80
2022-08-03T07:00:31.919Z,8.85
2022-08-03T07:03:00.746Z,8.55
2022-08-03T07:05:33.369Z,11.88
2022-08-03T07:08:03.097Z,14.57
2022-08-03T07:10:30.916Z,9.15
2022-08-03T07:12:58.673Z,10.77
2022-08-03T07:15:54.537Z,11.15
2022-08-03T07:18:16.314Z,11.20
2022-08-03T07:20:47.410Z,9.20
2022-08-03T07:23:18.913Z,8.48
2022-08-03T07:25:48.108Z,8.57
2022-08-03T07:29:17.448Z,10.85
2022-08-03T07:31:46.456Z,9.68
2022-08-03T07:34:14.383Z,8.67
2022-08-03T07:36:43.647Z,12.82
2022-08-03T07:39:16.656Z,9.05
2022-08-03T07:41:46.243Z,11.70
2022-08-03T07:44:16.681Z,9.45
2022-08-03T07:46:45.271Z,11.63
2022-08-03T07:49:13.276Z,9.13
2022-08-03T07:51:41.513Z,12.85
2022-08-03T07:54:11.207Z,8.45
2022-08-03T07:56:39.287Z,8.00
2022-08-03T07:59:07.355Z,8.57
2022-08-03T08:01:38.123Z,8.68
2022-08-03T08:04:06.254Z,9.33
2022-08-03T08:06:34.324Z,8.27
2022-08-03T08:09:02.417Z,8.55
2022-08-03T08:11:31.694Z,10.83
2022-08-03T08:14:02.721Z,8.75
2022-08-03T08:16:30.586Z,8.57
2022-08-03T08:18:59.131Z,10.02
2022-08-03T08:21:27.653Z,9.73
2022-08-03T08:24:18.313Z,8.00
2022-08-03T08:26:49.690Z,8.35
2022-08-03T08:29:18.262Z,7.95
2022-08-03T08:31:46.672Z,6.85
2022-08-03T08:34:14.561Z,6.57
2022-08-03T08:36:43.354Z,6.88
2022-08-03T08:39:11.222Z,5.73
2022-08-03T08:41:39.238Z,5.18
2022-08-03T08:44:16.080Z,5.50
2022-08-03T08:46:44.346Z,5.70
2022-08-03T08:49:13.861Z,5.68
2022-08-03T08:51:59.583Z,3.70
2022-08-03T08:54:30.539Z,8.60
2022-08-03T08:56:59.693Z,8.27
2022-08-03T08:59:48.964Z,6.47
2022-08-03T09:02:17.467Z,6.38
2022-08-03T09:04:48.751Z,5.00
2022-08-03T09:07:20.737Z,7.07
2022-08-03T09:10:10.627Z,6.17
2022-08-03T09:12:42.310Z,8.35
2022-08-03T09:15:23.811Z,7.63
2022-08-03T09:17:54.284Z,12.13
2022-08-03T09:20:23.808Z,8.40
2022-08-03T09:22:56.796Z,8.15
2022-08-03T09:25:29.577Z,8.93
2022-08-03T09:28:06.133Z,7.75
2022-08-03T09:30:35.941Z,7.97
2022-08-03T09:33:05.016Z,6.47
2022-08-03T09:35:53.110Z,7.28
2022-08-03T09:38:24.071Z,4.75
2022-08-03T09:40:59.016Z,4.10
2022-08-03T09:43:28.617Z,7.38
2022-08-03T09:46:05.710Z,7.70
2022-08-03T09:48:35.154Z,4.38
2022-08-03T09:51:13.013Z,7.72
2022-08-03T09:53:57.032Z,3.53
2022-08-03T09:56:40.100Z,5.30
2022-08-03T09:59:08.313Z,5.25
2022-08-03T10:01:39.523Z,9.10
2022-08-03T10:04:13.407Z,7.88
2022-08-03T10:06:41.436Z,5.30
2022-08-03T10:09:10.420Z,6.80
2022-08-03T10:11:41.733Z,7.03
2022-08-03T10:14:11.214Z,3.70
2022-08-03T10:16:41.523Z,9.63
2022-08-03T10:19:10.636Z,8.73
2022-08-03T10:21:40.263Z,4.97
2022-08-03T10:24:10.808Z,5.47
2022-08-03T10:26:49.940Z,5.63
2022-08-03T10:29:24.548Z,7.80
2022-08-03T10:31:58.007Z,6.40
2022-08-03T10:34:28.181Z,7.65
2022-08-03T10:36:59.892Z,8.43
2022-08-03T10:39:30.747Z,9.05
2022-08-03T10:42:00.018Z,7.43
2022-08-03T10:44:34.527Z,7.22
2022-08-03T10:47:04.726Z,3.30
2022-08-03T10:49:34.588Z,6.25
2022-08-03T10:52:13.331Z,4.13
2022-08-03T10:55:58.215Z,8.13
2022-08-03T10:58:57.086Z,7.43
2022-08-03T11:01:59.480Z,7.22
2022-08-03T11:04:31.008Z,7.37
2022-08-03T11:07:20.700Z,9.70
2022-08-03T11:09:51.729Z,7.82
2022-08-03T11:12:30.101Z,8.68
2022-08-03T11:15:00.526Z,9.88
2022-08-03T11:17:28.603Z,9.75
2022-08-03T11:19:58.611Z,7.13
2022-08-03T11:22:29.182Z,6.45
2022-08-03T11:25:02.437Z,8.50
2022-08-03T11:27:33.192Z,6.15
2022-08-03T11:30:05.669Z,6.78
2022-08-03T11:32:53.167Z,6.90
2022-08-03T11:35:27.573Z,14.00
2022-08-03T11:38:12.499Z,13.63
2022-08-03T11:40:45.432Z,5.68
2022-08-03T11:43:46.678Z,5.57
2022-08-03T11:46:28.657Z,7.45
2022-08-03T11:49:09.979Z,9.35
2022-08-03T11:51:41.282Z,12.00
2022-08-03T11:54:09.428Z,8.13
2022-08-03T11:56:48.107Z,6.93
2022-08-03T11:59:21.771Z,8.10
2022-08-03T12:01:50.446Z,9.97
2022-08-03T12:04:18.222Z,5.70
2022-08-03T12:07:01.168Z,9.30
2022-08-03T12:09:29.195Z,8.25
2022-08-03T12:12:00.513Z,9.73
2022-08-03T12:14:48.981Z,6.40
2022-08-03T12:17:19.256Z,5.60
2022-08-03T12:19:47.721Z,7.57
2022-08-03T12:22:18.063Z,8.35
2022-08-03T12:24:47.880Z,7.37
2022-08-03T12:27:24.676Z,8.98
2022-08-03T12:29:58.649Z,5.13
2022-08-03T12:32:27.567Z,8.10
2022-08-03T12:35:00.007Z,5.78
2022-08-03T12:37:30.192Z,9.25
2022-08-03T12:40:07.969Z,10.52
2022-08-03T12:42:40.018Z,5.55
2022-08-03T12:45:21.332Z,11.02
2022-08-03T12:47:54.166Z,7.25
2022-08-03T12:50:27.192Z,8.10
2022-08-03T12:52:57.046Z,4.50
2022-08-03T12:55:27.646Z,6.10
2022-08-03T12:57:55.438Z,8.55
2022-08-03T13:00:29.606Z,14.30
2022-08-03T13:03:39.206Z,13.35
2022-08-03T13:05:52.096Z,10.33
2022-08-03T13:08:22.361Z,16.92
2022-08-03T13:10:51.441Z,9.20
2022-08-03T13:13:22.399Z,7.53
2022-08-03T13:15:52.395Z,7.57
2022-08-03T13:18:21.046Z,12.00
2022-08-03T13:20:51.087Z,9.27
2022-08-03T13:23:36.590Z,7.97
2022-08-03T13:26:04.606Z,9.10
2022-08-03T13:28:32.517Z,11.82
2022-08-03T13:31:00.319Z,9.73
2022-08-03T13:33:28.728Z,6.97
2022-08-03T13:35:56.970Z,10.70
2022-08-03T13:38:27.212Z,17.33
2022-08-03T13:40:58.210Z,8.63
2022-08-03T13:43:26.310Z,9.52
2022-08-03T13:45:57.982Z,5.60
2022-08-03T13:48:37.318Z,6.38
2022-08-03T13:51:21.722Z,6.60
2022-08-03T13:53:52.390Z,8.48
2022-08-03T13:56:21.906Z,7.95
2022-08-03T13:58:49.980Z,8.27
2022-08-03T14:01:29.691Z,7.55
2022-08-03T14:04:05.969Z,7.40
2022-08-03T14:07:45.056Z,7.50
2022-08-03T14:10:15.155Z,8.32
2022-08-03T14:12:44.374Z,8.57
2022-08-03T14:15:13.260Z,7.78
2022-08-03T14:17:49.642Z,7.55
2022-08-03T14:20:37.758Z,5.32
2022-08-03T14:23:07.866Z,11.88
2022-08-03T14:25:44.313Z,8.10
2022-08-03T14:28:22.752Z,5.97
2022-08-03T14:30:51.171Z,6.10
2022-08-03T14:33:19.150Z,8.55
2022-08-03T14:35:48.126Z,6.32
2022-08-03T14:38:16.194Z,7.07
2022-08-03T14:40:44.850Z,6.85
2022-08-03T14:43:12.512Z,9.57
2022-08-03T14:45:42.616Z,4.80
2022-08-03T14:50:33.249Z,7.15
2022-08-03T14:51:00.615Z,5.72
2022-08-03T14:53:30.242Z,6.72
2022-08-03T14:56:00.063Z,3.25
2022-08-03T14:58:28.842Z,6.20
2022-08-03T15:01:00.023Z,5.25
2022-08-03T15:03:28.428Z,6.22
2022-08-03T15:05:58.273Z,5.82
2022-08-03T15:08:28.044Z,4.82
2022-08-03T15:10:56.705Z,5.60
2022-08-03T15:13:25.495Z,4.75
2022-08-03T15:15:53.705Z,6.33
2022-08-03T15:18:23.458Z,5.10
2022-08-03T15:20:52.320Z,4.65
2022-08-03T15:23:20.477Z,5.55
2022-08-03T15:26:28.246Z,5.05
2022-08-03T15:28:37.411Z,4.45
2022-08-03T15:31:05.826Z,3.60
2022-08-03T15:33:35.442Z,4.97
2022-08-03T15:36:04.076Z,5.03
2022-08-03T15:38:32.306Z,5.55
2022-08-03T15:41:00.194Z,3.47
2022-08-03T15:43:28.715Z,6.00
2022-08-03T15:48:46.448Z,5.72
2022-08-03T15:51:16.315Z,4.45
2022-08-03T15:53:45.441Z,3.53
2022-08-03T15:56:18.414Z,6.13
2022-08-03T15:59:04.173Z,4.25
2022-08-03T16:01:35.305Z,4.38
2022-08-03T16:04:04.866Z,4.68
2022-08-03T16:06:35.876Z,3.67
2022-08-03T16:09:05.727Z,3.75
2022-08-03T16:11:53.435Z,7.20
2022-08-03T16:14:34.693Z,4.22
2022-08-03T16:17:07.919Z,5.80
2022-08-03T16:19:41.065Z,4.03
2022-08-03T16:22:08.817Z,3.95
2022-08-03T16:24:37.843Z,5.30
2022-08-03T16:27:15.543Z,2.28
2022-08-03T16:29:56.311Z,8.02
2022-08-03T16:32:24.279Z,5.18
2022-08-03T16:34:54.502Z,7.05
2022-08-03T16:37:38.068Z,5.50
2022-08-03T16:40:19.127Z,3.13
2022-08-03T16:42:47.239Z,2.17
2022-08-03T16:45:15.292Z,5.22
2022-08-03T16:47:43.164Z,1.97
2022-08-03T16:50:19.725Z,6.85
2022-08-03T16:52:48.737Z,5.80
2022-08-03T16:55:53.543Z,4.60
2022-08-03T16:58:06.881Z,3.85
2022-08-03T17:00:41.590Z,4.60
2022-08-03T17:03:16.409Z,3.85
2022-08-03T17:05:50.897Z,4.72
2022-08-03T17:08:26.628Z,4.33
2022-08-03T17:10:57.309Z,4.03
2022-08-03T17:13:38.933Z,4.68
2022-08-03T17:16:09.900Z,3.40
2022-08-03T17:18:42.177Z,5.18
2022-08-03T17:21:16.998Z,4.85
2022-08-03T17:23:47.830Z,4.95
2022-08-03T17:26:22.102Z,3.10
2022-08-03T17:28:58.276Z,4.30
2022-08-03T17:31:31.914Z,6.60
2022-08-03T17:34:02.006Z,5.55
2022-08-03T17:37:03.155Z,10.63
2022-08-03T17:44:13.053Z,8.10
2022-08-03T17:45:55.225Z,8.20
2022-08-03T17:48:25.249Z,8.63
2022-08-03T17:50:55.022Z,7.65
2022-08-03T17:53:30.764Z,5.18
2022-08-03T17:56:38.571Z,10.60
2022-08-03T17:59:01.047Z,9.07
2022-08-03T18:02:04.429Z,11.43
2022-08-03T18:06:10.540Z,9.85
2022-08-03T18:08:33.197Z,13.55
2022-08-03T18:11:14.564Z,12.52
2022-08-03T18:13:53.348Z,16.30
2022-08-03T18:16:29.960Z,25.17
2022-08-03T18:19:09.571Z,21.45
2022-08-03T18:22:02.983Z,25.83
2022-08-03T18:24:35.906Z,38.47
2022-08-03T18:27:07.055Z,91.75
2022-08-03T18:29:36.993Z,273.52
2022-08-03T18:32:13.475Z,209.20
2022-08-03T18:34:54.011Z,68.22
2022-08-03T18:37:33.704Z,34.60
2022-08-03T18:40:25.113Z,24.00
2022-08-03T18:42:56.378Z,22.15
2022-08-03T18:45:56.116Z,22.30
2022-08-03T18:48:19.161Z,21.00
2022-08-03T18:50:51.592Z,9.88
2022-08-03T18:54:03.075Z,11.70
2022-08-03T18:56:22.436Z,13.60
2022-08-03T18:58:53.288Z,16.57
2022-08-03T19:02:01.011Z,12.80
2022-08-03T19:04:27.011Z,15.13
2022-08-03T19:07:03.655Z,14.82
2022-08-03T19:09:39.726Z,13.63
2022-08-03T19:12:32.396Z,8.43
2022-08-03T19:15:05.633Z,11.95
2022-08-03T19:17:42.918Z,12.23
2022-08-03T19:20:21.765Z,12.05
2022-08-03T19:22:51.848Z,12.38
2022-08-03T19:25:20.449Z,13.83
2022-08-03T19:28:08.385Z,9.77
2022-08-03T19:30:39.022Z,13.18
2022-08-03T19:33:09.514Z,6.70
2022-08-03T19:35:51.166Z,11.47
2022-08-03T19:38:28.594Z,10.65
2022-08-03T19:41:00.650Z,10.97
2022-08-03T19:43:53.013Z,10.63
2022-08-03T19:46:30.357Z,13.45
2022-08-03T19:49:02.765Z,17.77
2022-08-03T19:52:00.862Z,9.45
2022-08-03T19:54:29.666Z,11.48
2022-08-03T19:57:02.015Z,13.70
2022-08-03T19:59:49.592Z,13.77
2022-08-03T20:02:26.459Z,4.77
2022-08-03T20:04:55.802Z,14.50
2022-08-03T20:07:24.036Z,13.43
2022-08-03T20:09:54.623Z,10.43
2022-08-03T20:13:28.453Z,9.90
2022-08-03T20:15:57.611Z,8.85
2022-08-03T20:18:25.420Z,8.23
2022-08-03T20:20:55.467Z,5.55
2022-08-03T20:23:24.370Z,9.27
2022-08-03T20:25:57.484Z,6.47
2022-08-03T20:28:32.429Z,7.75
2022-08-03T20:31:02.198Z,8.20
2022-08-03T20:33:46.121Z,10.30
2022-08-03T20:36:18.834Z,14.65
2022-08-03T20:38:48.074Z,14.18
2022-08-03T20:41:18.669Z,9.00
2022-08-03T20:43:49.525Z,7.65
2022-08-03T20:49:13.061Z,11.25
2022-08-03T20:51:49.761Z,8.95
2022-08-03T20:54:30.951Z,8.65
2022-08-03T20:58:01.039Z,8.43
2022-08-03T21:00:31.532Z,6.03
2022-08-03T21:03:02.149Z,8.50
2022-08-03T21:05:48.320Z,9.65
2022-08-03T21:08:23.155Z,11.57
2022-08-03T21:10:54.758Z,9.43
2022-08-03T21:13:12.468Z,6.95
2022-08-03T21:13:28.214Z,7.10
2022-08-03T21:16:12.810Z,7.75
2022-08-03T21:18:47.499Z,8.30
2022-08-03T21:21:17.862Z,7.22
2022-08-03T21:23:50.759Z,11.02
2022-08-03T21:26:20.423Z,9.60
2022-08-03T21:28:50.585Z,9.90
2022-08-03T21:31:24.635Z,6.75
2022-08-03T21:33:57.622Z,7.60
2022-08-03T21:36:27.398Z,8.27
2022-08-03T21:38:57.999Z,8.13
2022-08-03T21:41:28.970Z,8.25
2022-08-03T21:43:59.235Z,12.50
2022-08-03T21:46:29.177Z,15.45
2022-08-03T21:50:05.027Z,7.63
2022-08-03T21:51:53.719Z,8.45
2022-08-03T21:54:22.659Z,15.02
2022-08-03T21:56:52.477Z,8.60
2022-08-03T21:59:22.031Z,10.75
2022-08-03T22:01:55.433Z,6.70
2022-08-03T22:04:50.723Z,8.57
2022-08-03T22:07:23.760Z,11.93
2022-08-03T22:10:53.085Z,9.90
2022-08-03T22:13:43.191Z,10.75
2022-08-03T22:16:11.167Z,12.65
2022-08-03T22:18:39.753Z,7.13
2022-08-03T22:21:11.661Z,10.52
2022-08-03T22:23:42.409Z,11.40
2022-08-03T22:26:15.081Z,9.00
2022-08-03T22:28:43.744Z,9.90
2022-08-03T22:31:57.187Z,12.73
2022-08-03T22:34:00.197Z,9.52
2022-08-03T22:36:31.080Z,13.52
2022-08-03T22:38:59.890Z,13.07
2022-08-03T22:41:30.185Z,10.65
2022-08-03T22:44:00.005Z,9.73
2022-08-03T22:46:34.237Z,8.95
2022-08-03T22:49:02.364Z,15.70
2022-08-03T22:51:32.301Z,8.82
2022-08-03T22:54:00.346Z,10.60
2022-08-03T22:56:32.991Z,9.23
2022-08-03T22:59:02.762Z,6.60
2022-08-03T23:06:02.188Z,9.95
2022-08-03T23:08:25.632Z,6.97
2022-08-03T23:10:54.274Z,10.07
2022-08-03T23:13:25.808Z,10.25
2022-08-03T23:15:57.909Z,9.38
2022-08-03T23:18:34.089Z,8.23
2022-08-03T23:21:11.232Z,14.23
2022-08-03T23:23:44.585Z,12.37
2022-08-03T23:26:15.416Z,11.35
2022-08-03T23:28:46.437Z,8.53
2022-08-03T23:31:15.310Z,9.85
2022-08-03T23:33:46.182Z,6.47
2022-08-03T23:36:30.904Z,9.02
2022-08-03T23:39:02.971Z,11.00
2022-08-03T23:41:31.112Z,10.73
2022-08-03T23:44:00.654Z,5.45
2022-08-03T23:46:31.508Z,14.65
2022-08-03T23:48:59.877Z,12.35
2022-08-03T23:51:37.681Z,11.00
2022-08-03T23:54:11.386Z,11.80
2022-08-03T23:56:44.732Z,8.43
2022-08-03T23:59:31.206Z,6.97
